GOSS

Saint Louis Airport

Saint Louis, Senegal
METAR GOSS 231000Z 08006KT 8000 NSC 21/01 Q1014 NOSIG
Observed Flight Rules
Jan-23 @ 10:00 UTC (2 hours ago) Marginal Visual Flight Rules
Wind Visibility Clouds
80° at 6 knots 7,998 meters
  • Clear skies
Temperatures Readings
Current 21°C / 70°F
Dewpoint 1°C / 34°F
Humidity 27%
Altimeter 29.94" Hg
Pressure 1014 hPa
Elevation 4
METAR GOSS 231000Z 08006KT 8000 NSC 21/01 Q1014 NOSIG
Observed Flight Rules
Jan-23 @ 10:00 UTC
(2 hours ago)
MVFR
Wind Visibility
80° at 6 knots 7,998 meters
Clouds
  • Clear skies
Temperature Dewpoint
21°C / 70°F 1°C / 34°F
Humidity Altimeter Pressure
27% 29.94" Hg 1014 hPa